createdAt,value
2023-03-17T00:00:05.433Z,39.20
2023-03-17T00:03:22.332Z,38.50
2023-03-17T00:06:30.080Z,35.70
2023-03-17T00:09:32.979Z,31.48
2023-03-17T00:12:35.608Z,30.00
2023-03-17T00:15:38.928Z,28.63
2023-03-17T00:18:42.158Z,30.08
2023-03-17T00:21:46.146Z,30.35
2023-03-17T00:24:48.717Z,30.02
2023-03-17T00:27:51.493Z,26.05
2023-03-17T00:30:57.629Z,34.80
2023-03-17T00:34:00.796Z,28.83
2023-03-17T00:37:04.322Z,29.25
2023-03-17T00:40:14.871Z,29.30
2023-03-17T00:43:17.886Z,30.23
2023-03-17T00:46:28.615Z,30.90
2023-03-17T00:49:32.970Z,30.15
2023-03-17T00:52:36.199Z,21.10
2023-03-17T00:55:38.840Z,21.75
2023-03-17T00:58:42.197Z,21.08
2023-03-17T01:01:44.946Z,24.57
2023-03-17T01:04:56.191Z,29.13
2023-03-17T01:08:03.752Z,24.70
2023-03-17T01:11:06.885Z,26.15
2023-03-17T01:14:10.973Z,23.70
2023-03-17T01:17:17.127Z,23.20
2023-03-17T01:20:23.169Z,24.83
2023-03-17T01:23:26.196Z,22.25
2023-03-17T01:26:28.864Z,24.58
2023-03-17T01:29:31.805Z,25.65
2023-03-17T01:32:34.505Z,24.57
2023-03-17T01:35:38.488Z,23.10
2023-03-17T01:38:41.733Z,21.00
2023-03-17T01:41:45.686Z,22.40
2023-03-17T01:45:28.034Z,36.63
2023-03-17T01:48:34.419Z,33.50
2023-03-17T01:51:43.100Z,24.40
2023-03-17T01:54:50.555Z,19.73
2023-03-17T01:57:54.433Z,22.38
2023-03-17T02:00:57.431Z,18.42
2023-03-17T02:04:01.124Z,21.07
2023-03-17T02:07:05.336Z,21.48
2023-03-17T02:10:09.060Z,18.08
2023-03-17T02:13:14.072Z,18.15
2023-03-17T02:16:17.592Z,22.38
2023-03-17T02:19:22.554Z,21.77
2023-03-17T02:22:25.376Z,21.10
2023-03-17T02:25:30.829Z,22.05
2023-03-17T02:28:34.476Z,31.80
2023-03-17T02:31:37.164Z,20.73
2023-03-17T02:34:39.881Z,17.40
2023-03-17T02:37:43.880Z,24.92
2023-03-17T02:40:46.453Z,28.63
2023-03-17T02:43:49.180Z,24.27
2023-03-17T02:46:52.076Z,24.08
2023-03-17T02:49:55.005Z,23.17
2023-03-17T02:52:58.661Z,22.95
2023-03-17T02:56:01.322Z,21.92
2023-03-17T02:59:04.563Z,21.83
2023-03-17T03:02:07.219Z,21.98
2023-03-17T03:05:10.904Z,17.93
2023-03-17T03:08:13.584Z,20.65
2023-03-17T03:11:16.338Z,18.63
2023-03-17T03:14:19.022Z,23.98
2023-03-17T03:17:21.671Z,24.95
2023-03-17T03:20:24.419Z,23.37
2023-03-17T03:23:27.600Z,17.63
2023-03-17T03:26:30.574Z,22.08
2023-03-17T03:29:33.323Z,21.58
2023-03-17T03:32:35.986Z,20.70
2023-03-17T03:35:39.116Z,19.63
2023-03-17T03:38:41.926Z,22.02
2023-03-17T03:41:44.460Z,29.23
2023-03-17T03:44:47.171Z,24.58
2023-03-17T03:47:50.028Z,21.02
2023-03-17T03:51:00.154Z,19.30
2023-03-17T03:54:02.989Z,23.27
2023-03-17T03:57:06.004Z,22.20
2023-03-17T04:00:09.309Z,27.73
2023-03-17T04:03:16.199Z,22.45
2023-03-17T04:06:18.917Z,18.80
2023-03-17T04:09:21.578Z,22.30
2023-03-17T04:12:24.134Z,21.27
2023-03-17T04:15:27.278Z,38.05
2023-03-17T04:18:31.139Z,28.63
2023-03-17T04:21:33.690Z,36.77
2023-03-17T04:24:36.482Z,36.30
2023-03-17T04:27:39.341Z,34.55
2023-03-17T04:30:42.135Z,18.92
2023-03-17T04:33:44.864Z,22.90
2023-03-17T04:36:48.240Z,28.47
2023-03-17T04:39:51.469Z,27.77
2023-03-17T04:42:54.265Z,40.22
2023-03-17T04:45:57.070Z,34.90
2023-03-17T04:48:59.754Z,23.30
2023-03-17T04:52:02.382Z,35.20
2023-03-17T04:55:08.485Z,31.05
2023-03-17T04:58:15.660Z,30.63
2023-03-17T05:01:27.381Z,53.53
2023-03-17T05:04:31.980Z,34.97
2023-03-17T05:07:35.087Z,52.67
2023-03-17T05:10:37.686Z,43.85
2023-03-17T05:13:43.248Z,42.13
2023-03-17T05:16:49.088Z,28.98
2023-03-17T05:19:51.842Z,26.35
2023-03-17T05:22:54.530Z,35.50
2023-03-17T05:25:57.207Z,26.33
2023-03-17T05:28:59.796Z,57.58
2023-03-17T05:32:02.375Z,28.33
2023-03-17T05:35:06.175Z,23.15
2023-03-17T05:38:11.118Z,19.47
2023-03-17T05:41:13.800Z,21.02
2023-03-17T05:44:16.609Z,21.10
2023-03-17T05:47:20.185Z,18.63
2023-03-17T05:50:23.121Z,19.83
2023-03-17T05:53:26.037Z,20.17
2023-03-17T05:56:33.461Z,28.88
2023-03-17T05:59:36.377Z,24.58
2023-03-17T06:02:39.874Z,27.95
2023-03-17T06:05:42.647Z,24.20
2023-03-17T06:08:45.368Z,30.03
2023-03-17T06:11:48.010Z,27.30
2023-03-17T06:14:50.646Z,23.98
2023-03-17T06:17:53.506Z,75.65
2023-03-17T06:20:56.061Z,36.70
2023-03-17T06:23:58.614Z,27.50
2023-03-17T06:27:01.702Z,30.73
2023-03-17T06:30:06.552Z,31.88
2023-03-17T06:33:09.351Z,24.00
2023-03-17T06:36:12.519Z,25.50
2023-03-17T06:39:15.868Z,23.90
2023-03-17T06:42:19.294Z,21.92
2023-03-17T06:45:22.014Z,21.52
2023-03-17T06:48:24.807Z,28.50
2023-03-17T06:51:28.004Z,30.45
2023-03-17T06:54:30.829Z,33.80
2023-03-17T06:57:33.584Z,25.63
2023-03-17T07:00:38.467Z,25.25
2023-03-17T07:03:41.694Z,29.45
2023-03-17T07:06:45.075Z,22.55
2023-03-17T07:09:48.093Z,22.93
2023-03-17T07:12:50.768Z,25.02
2023-03-17T07:15:55.443Z,24.67
2023-03-17T07:18:58.321Z,21.35
2023-03-17T07:22:01.179Z,19.65
2023-03-17T07:25:04.186Z,21.27
2023-03-17T07:28:06.914Z,18.05
2023-03-17T07:31:11.690Z,23.55
2023-03-17T07:34:14.471Z,26.95
2023-03-17T07:37:17.652Z,20.75
2023-03-17T07:40:20.443Z,20.37
2023-03-17T07:43:23.052Z,21.50
2023-03-17T07:46:26.068Z,15.27
2023-03-17T07:49:40.721Z,15.00
2023-03-17T07:52:44.085Z,8.75
2023-03-17T07:55:46.646Z,10.87
2023-03-17T07:58:49.336Z,9.52
2023-03-17T08:01:52.115Z,10.18
2023-03-17T08:04:54.814Z,9.52
2023-03-17T08:07:57.428Z,10.07
2023-03-17T08:11:04.554Z,11.43
2023-03-17T08:14:07.328Z,11.63
2023-03-17T08:17:10.658Z,13.07
2023-03-17T08:20:14.406Z,11.65
2023-03-17T08:23:20.783Z,7.78
2023-03-17T08:26:23.537Z,13.50
2023-03-17T08:29:28.507Z,10.90
2023-03-17T08:32:31.292Z,11.27
2023-03-17T08:35:34.639Z,8.20
2023-03-17T08:38:42.052Z,7.13
2023-03-17T08:41:44.564Z,9.03
2023-03-17T08:44:47.323Z,8.32
2023-03-17T08:47:50.417Z,7.70
2023-03-17T08:50:53.349Z,9.40
2023-03-17T08:53:56.517Z,7.20
2023-03-17T08:56:59.588Z,8.83
2023-03-17T09:00:02.494Z,7.20
2023-03-17T09:03:05.931Z,7.55
2023-03-17T09:06:11.687Z,9.57
2023-03-17T09:09:15.038Z,10.35
2023-03-17T09:12:17.820Z,6.53
2023-03-17T09:15:21.357Z,6.63
2023-03-17T09:18:24.019Z,8.52
2023-03-17T09:21:27.453Z,10.02
2023-03-17T09:24:30.004Z,10.48
2023-03-17T09:27:32.916Z,6.97
2023-03-17T09:30:35.688Z,6.25
2023-03-17T09:33:39.880Z,10.00
2023-03-17T09:36:42.858Z,7.93
2023-03-17T09:39:45.524Z,10.55
2023-03-17T09:43:06.985Z,8.40
2023-03-17T09:46:35.599Z,6.93
2023-03-17T09:49:45.979Z,7.30
2023-03-17T09:52:51.387Z,5.75
2023-03-17T09:55:58.456Z,7.05
2023-03-17T09:59:08.775Z,6.20
2023-03-17T10:02:37.964Z,5.72
2023-03-17T10:05:40.697Z,6.25
2023-03-17T10:09:18.592Z,7.72
2023-03-17T10:12:46.982Z,7.53
2023-03-17T10:15:51.231Z,5.77
2023-03-17T10:19:00.884Z,7.65
2023-03-17T10:22:07.182Z,6.53
2023-03-17T10:25:25.736Z,6.40
2023-03-17T10:28:31.680Z,6.70
2023-03-17T10:31:35.700Z,7.57
2023-03-17T10:34:39.748Z,9.93
2023-03-17T10:37:44.032Z,10.48
2023-03-17T10:40:55.848Z,7.85
2023-03-17T10:43:59.655Z,6.68
2023-03-17T10:47:02.365Z,8.33
2023-03-17T10:50:30.165Z,6.72
2023-03-17T10:53:38.498Z,12.07
2023-03-17T10:56:42.494Z,7.32
2023-03-17T10:59:58.666Z,8.48
2023-03-17T11:03:11.048Z,8.90
2023-03-17T11:06:22.618Z,6.90
2023-03-17T11:09:28.333Z,12.13
2023-03-17T11:12:41.462Z,7.07
2023-03-17T11:15:49.853Z,5.85
2023-03-17T11:18:58.201Z,17.47
2023-03-17T11:22:15.316Z,11.52
2023-03-17T11:25:20.353Z,8.10
2023-03-17T11:28:28.447Z,9.18
2023-03-17T11:31:32.423Z,9.27
2023-03-17T11:34:34.951Z,7.00
2023-03-17T11:37:48.975Z,7.95
2023-03-17T11:41:18.963Z,7.03
2023-03-17T11:44:40.471Z,8.43
2023-03-17T11:48:06.177Z,6.85
2023-03-17T11:51:30.538Z,9.13
2023-03-17T11:54:58.969Z,10.98
2023-03-17T11:58:09.642Z,7.70
2023-03-17T12:01:19.686Z,4.72
2023-03-17T12:04:34.341Z,5.93
2023-03-17T12:07:45.076Z,7.90
2023-03-17T12:10:54.796Z,7.75
2023-03-17T12:14:04.962Z,7.28
2023-03-17T12:17:13.592Z,5.55
2023-03-17T12:20:22.462Z,12.50
2023-03-17T12:23:30.229Z,12.27
2023-03-17T12:26:48.192Z,8.80
2023-03-17T12:30:03.038Z,9.30
2023-03-17T12:33:39.240Z,6.43
2023-03-17T12:36:42.805Z,9.68
2023-03-17T12:40:11.121Z,7.60
2023-03-17T12:43:29.276Z,6.38
2023-03-17T12:46:47.641Z,7.68
2023-03-17T12:49:56.252Z,7.90
2023-03-17T12:53:14.446Z,7.30
2023-03-17T12:56:20.025Z,8.67
2023-03-17T12:59:25.232Z,7.45
2023-03-17T13:02:27.657Z,12.30
2023-03-17T13:05:32.965Z,9.15
2023-03-17T13:08:43.192Z,17.20
2023-03-17T13:11:48.889Z,8.67
2023-03-17T13:14:52.039Z,10.90
2023-03-17T13:18:15.436Z,10.25
2023-03-17T13:21:19.358Z,7.00
2023-03-17T13:24:36.129Z,7.90
2023-03-17T13:27:38.609Z,8.27
2023-03-17T13:30:42.607Z,7.18
2023-03-17T13:33:50.392Z,5.82
2023-03-17T13:37:19.765Z,9.10
2023-03-17T13:40:23.922Z,6.00
2023-03-17T13:44:02.077Z,6.47
2023-03-17T13:47:35.963Z,6.53
2023-03-17T13:50:40.143Z,8.73
2023-03-17T13:53:47.870Z,10.82
2023-03-17T13:56:51.463Z,10.40
2023-03-17T14:00:15.350Z,8.30
2023-03-17T14:03:27.533Z,8.48
2023-03-17T14:06:34.534Z,6.72
2023-03-17T14:09:42.305Z,6.75
2023-03-17T14:12:50.819Z,9.05
2023-03-17T14:16:12.496Z,12.20
2023-03-17T14:19:27.706Z,8.40
2023-03-17T14:22:30.389Z,7.55
2023-03-17T14:25:35.542Z,10.80
2023-03-17T14:28:38.189Z,7.07
2023-03-17T14:31:41.017Z,11.40
2023-03-17T14:34:54.383Z,7.80
2023-03-17T14:37:57.159Z,9.48
2023-03-17T14:41:05.823Z,7.00
2023-03-17T14:44:08.880Z,7.65
2023-03-17T14:47:32.599Z,6.33
2023-03-17T14:50:35.193Z,6.97
2023-03-17T14:53:43.395Z,10.23
2023-03-17T14:56:52.129Z,10.13
2023-03-17T15:00:02.152Z,15.07
2023-03-17T15:03:18.799Z,10.77
2023-03-17T15:06:26.805Z,11.90
2023-03-17T15:09:31.888Z,9.68
2023-03-17T15:12:34.616Z,14.23
2023-03-17T15:15:39.210Z,8.73
2023-03-17T15:18:41.906Z,14.37
2023-03-17T15:21:44.687Z,8.52
2023-03-17T15:24:57.484Z,10.20
2023-03-17T15:28:00.455Z,10.73
2023-03-17T15:31:13.093Z,13.50
2023-03-17T15:34:15.802Z,9.23
2023-03-17T15:37:27.301Z,13.23
2023-03-17T15:40:29.904Z,9.40
2023-03-17T15:43:32.679Z,11.80
2023-03-17T15:46:35.469Z,12.23
2023-03-17T15:49:38.095Z,9.50
2023-03-17T15:52:41.068Z,8.73
2023-03-17T15:55:43.872Z,13.30
2023-03-17T15:58:49.236Z,11.10
2023-03-17T16:01:51.852Z,31.15
2023-03-17T16:04:55.218Z,12.63
2023-03-17T16:07:57.904Z,15.93
2023-03-17T16:11:00.686Z,18.88
2023-03-17T16:14:03.276Z,22.95
2023-03-17T16:17:07.184Z,31.83
2023-03-17T16:20:20.743Z,27.93
2023-03-17T16:23:29.006Z,18.27
2023-03-17T16:26:31.685Z,16.02
2023-03-17T16:29:34.268Z,21.23
2023-03-17T16:32:36.986Z,23.40
2023-03-17T16:35:39.763Z,18.43
2023-03-17T16:38:42.774Z,23.30
2023-03-17T16:41:47.575Z,24.40
2023-03-17T16:44:51.024Z,24.40
2023-03-17T16:47:54.124Z,18.73
2023-03-17T16:50:57.711Z,18.63
2023-03-17T16:54:00.578Z,24.25
2023-03-17T16:57:04.237Z,19.27
2023-03-17T17:00:09.381Z,19.23
2023-03-17T17:03:12.365Z,23.27
2023-03-17T17:06:15.562Z,23.07
2023-03-17T17:09:18.970Z,20.80
2023-03-17T17:12:21.656Z,21.33
2023-03-17T17:15:24.346Z,14.30
2023-03-17T17:18:27.669Z,18.00
2023-03-17T17:21:31.389Z,15.57
2023-03-17T17:24:34.103Z,18.60
2023-03-17T17:27:38.015Z,18.92
2023-03-17T17:30:45.078Z,20.17
2023-03-17T17:33:47.782Z,19.77
2023-03-17T17:36:50.551Z,21.43
2023-03-17T17:39:53.559Z,24.50
2023-03-17T17:42:56.745Z,20.42
2023-03-17T17:45:59.460Z,19.65
2023-03-17T17:49:02.236Z,22.77
2023-03-17T17:52:05.956Z,19.27
2023-03-17T17:55:08.880Z,20.08
2023-03-17T17:58:17.063Z,20.50
2023-03-17T18:01:22.779Z,13.13
2023-03-17T18:04:26.030Z,13.48
2023-03-17T18:07:28.852Z,18.30
2023-03-17T18:10:31.986Z,17.15
2023-03-17T18:13:36.235Z,19.88
2023-03-17T18:16:39.072Z,22.20
2023-03-17T18:19:42.248Z,24.02
2023-03-17T18:22:45.722Z,20.47
2023-03-17T18:25:49.438Z,19.45
2023-03-17T18:28:52.660Z,17.88
2023-03-17T18:31:55.745Z,18.30
2023-03-17T18:35:01.245Z,21.98
2023-03-17T18:38:04.163Z,21.67
2023-03-17T18:41:07.691Z,27.80
2023-03-17T18:44:11.216Z,32.55
2023-03-17T18:47:15.997Z,26.55
2023-03-17T18:50:21.795Z,33.53
2023-03-17T18:53:24.988Z,43.13
2023-03-17T18:56:29.745Z,51.50
2023-03-17T18:59:32.608Z,52.65
2023-03-17T19:02:37.714Z,37.85
2023-03-17T19:05:41.051Z,33.75
2023-03-17T19:08:44.300Z,26.17
2023-03-17T19:11:47.081Z,28.98
2023-03-17T19:14:50.115Z,27.00
2023-03-17T19:17:52.770Z,22.48
2023-03-17T19:20:56.682Z,20.30
2023-03-17T19:24:01.417Z,21.73
2023-03-17T19:27:05.820Z,20.73
2023-03-17T19:30:09.133Z,19.90
2023-03-17T19:33:13.320Z,19.38
2023-03-17T19:36:16.168Z,18.80
2023-03-17T19:39:19.001Z,18.23
2023-03-17T19:42:22.271Z,16.30
2023-03-17T19:45:26.224Z,15.70
2023-03-17T19:48:28.953Z,29.52
2023-03-17T19:51:33.199Z,69.53
2023-03-17T19:54:45.871Z,26.90
2023-03-17T19:57:48.729Z,15.98
2023-03-17T20:00:51.731Z,13.93
2023-03-17T20:03:54.373Z,13.88
2023-03-17T20:06:58.184Z,18.60
2023-03-17T20:10:01.560Z,15.10
2023-03-17T20:13:04.366Z,12.45
2023-03-17T20:16:07.796Z,25.27
2023-03-17T20:19:11.009Z,13.65
2023-03-17T20:22:13.752Z,13.50
2023-03-17T20:25:16.660Z,17.47
2023-03-17T20:28:21.527Z,25.35
2023-03-17T20:31:24.395Z,19.35
2023-03-17T20:34:27.137Z,22.42
2023-03-17T20:37:29.963Z,18.95
2023-03-17T20:40:32.998Z,14.77
2023-03-17T20:43:37.603Z,14.40
2023-03-17T20:46:40.594Z,20.10
2023-03-17T20:49:43.172Z,20.80
2023-03-17T20:52:46.664Z,25.13
2023-03-17T20:55:50.630Z,29.07
2023-03-17T20:58:53.654Z,22.33
2023-03-17T21:01:56.770Z,20.08
2023-03-17T21:04:59.517Z,24.10
2023-03-17T21:08:02.435Z,18.75
2023-03-17T21:11:06.504Z,23.90
2023-03-17T21:14:12.320Z,15.23
2023-03-17T21:17:16.397Z,17.15
2023-03-17T21:20:21.269Z,20.60
2023-03-17T21:23:24.034Z,24.88
2023-03-17T21:26:26.777Z,25.53
2023-03-17T21:29:30.851Z,20.23
2023-03-17T21:32:33.497Z,20.10
2023-03-17T21:35:36.865Z,17.77
2023-03-17T21:38:39.650Z,16.38
2023-03-17T21:41:42.260Z,16.47
2023-03-17T21:44:45.908Z,17.25
2023-03-17T21:47:49.301Z,17.75
2023-03-17T21:50:52.060Z,11.52
2023-03-17T21:53:54.682Z,11.82
2023-03-17T21:56:57.293Z,16.83
2023-03-17T22:00:00.123Z,15.52
2023-03-17T22:03:02.703Z,16.38
2023-03-17T22:06:05.927Z,12.57
2023-03-17T22:09:08.847Z,14.40
2023-03-17T22:12:11.950Z,15.00
2023-03-17T22:15:14.644Z,16.40
2023-03-17T22:18:18.039Z,16.10
2023-03-17T22:21:21.720Z,15.68
2023-03-17T22:24:25.572Z,16.23
2023-03-17T22:27:28.165Z,13.50
2023-03-17T22:30:31.382Z,14.57
2023-03-17T22:33:34.249Z,13.55
2023-03-17T22:36:37.480Z,13.60
2023-03-17T22:39:39.983Z,16.50
2023-03-17T22:42:42.718Z,17.97
2023-03-17T22:45:45.316Z,12.30
2023-03-17T22:48:47.987Z,14.88
2023-03-17T22:51:50.666Z,12.82
2023-03-17T22:54:53.243Z,13.98
2023-03-17T22:57:56.085Z,15.23
2023-03-17T23:00:58.702Z,17.90
2023-03-17T23:04:02.150Z,14.52
2023-03-17T23:07:05.626Z,13.60
2023-03-17T23:10:09.387Z,14.82
2023-03-17T23:13:12.834Z,15.60
2023-03-17T23:16:16.233Z,17.83
2023-03-17T23:19:19.262Z,17.95
2023-03-17T23:22:21.935Z,15.00
2023-03-17T23:25:24.665Z,17.27
2023-03-17T23:28:27.367Z,15.80
2023-03-17T23:31:30.393Z,12.45
2023-03-17T23:34:33.247Z,15.88
2023-03-17T23:37:36.305Z,17.40
2023-03-17T23:40:39.782Z,16.25
2023-03-17T23:43:42.592Z,13.53
2023-03-17T23:46:45.401Z,17.30
2023-03-17T23:49:47.976Z,13.10
2023-03-17T23:52:50.709Z,16.30
2023-03-17T23:55:54.559Z,15.98
2023-03-17T23:58:57.210Z,23.33
